Coastal Inspiration — CFN4970 — position and weather

sailwx.info

Track history (hours):
 
Tides and Currents Weather Stations Pressure Air Temp Water Temp Dewpoint Dewpoint Depression Visibility Wind Speed Wind Dir Waves Ship Positions

Coastal Inspiration

Last reported at 2014-Sep-03 06:33 UTC. Time now 2014-Sep-03 07:25 UTC.
Position N 49°07' W 123°28'.

Length 160 m; draft 6 m.

Type: Ship. MMSI: 316011408.

Date/timePositionNaut miles runAvg speedWind from/ knotsBaromVisibWave heightAir tempDewpointWater temp
2014-Sep-03 06:33N 49°07' W 123°28'1514.9
2014-Sep-03 05:34N 49°00' W 123°08'1312.6
2014-Sep-03 04:33N 49°04' W 123°26'1918.7
2014-Sep-03 03:33N 49°12' W 123°52'2 1.6
2014-Sep-03 02:33N 49°11' W 123°53'1817.7
2014-Sep-03 01:33N 49°06' W 123°27'1413.9
2014-Sep-03 00:33N 49°00' W 123°08'1312.9
2014-Sep-02 23:33N 49°05' W 123°26'1817.6
2014-Sep-02 22:32N 49°13' W 123°51'2 1.7
2014-Sep-02 21:33N 49°12' W 123°53'1717.4
2014-Sep-02 20:33N 49°06' W 123°28'1414.3
2014-Sep-02 19:33N 49°00' W 123°08'1110.7
2014-Sep-02 18:33N 49°03' W 123°24'1918.8
2014-Sep-02 17:33N 49°13' W 123°48'4 4.4
2014-Sep-02 16:33N 49°10' W 123°53'1616.0
2014-Sep-02 15:33N 49°07' W 123°29'1515.5
2014-Sep-02 14:33N 49°00' W 123°08'1212.1
2014-Sep-02 13:33N 49°04' W 123°26'1817.5
2014-Sep-02 12:34N 49°13' W 123°48'4 0.8
2014-Sep-02 07:33N 49°10' W 123°53'1716.9
2014-Sep-02 06:33N 49°07' W 123°28'1514.7
2014-Sep-02 05:33N 49°00' W 123°08'1211.9
2014-Sep-02 04:33N 49°04' W 123°25'1817.8
2014-Sep-02 03:33N 49°13' W 123°49'3 3.0
2014-Sep-02 02:34N 49°12' W 123°53'1918.8
2014-Sep-02 01:34N 49°06' W 123°26'1312.9
2014-Sep-02 00:33N 49°00' W 123°08'1312.9
2014-Sep-01 23:34N 49°04' W 123°27'1817.9
2014-Sep-01 22:33N 49°13' W 123°51'1 1.1
2014-Sep-01 21:34N 49°12' W 123°53'1817.7
2014-Sep-01 20:33N 49°06' W 123°27'1413.8
2014-Sep-01 19:33N 49°00' W 123°08'1110.8
2014-Sep-01 18:34N 49°03' W 123°24'1918.3
2014-Sep-01 17:33N 49°13' W 123°48'4 4.2
2014-Sep-01 16:29N 49°10' W 123°53'1616.8
2014-Sep-01 15:33N 49°07' W 123°30'1616.0
2014-Sep-01 14:34N 49°00' W 123°08'1212.0
2014-Sep-01 13:34N 49°04' W 123°25'1817.5
2014-Sep-01 12:33N 49°13' W 123°48'4 0.7
2014-Sep-01 07:33N 49°11' W 123°53'1717.3
2014-Sep-01 06:34N 49°07' W 123°28'1414.5
2014-Sep-01 05:33N 49°00' W 123°08'1211.8
2014-Sep-01 04:33N 49°04' W 123°25'1817.9
2014-Sep-01 03:33N 49°13' W 123°49'2 2.1
2014-Sep-01 02:33N 49°13' W 123°52'1818.1
2014-Sep-01 01:33N 49°06' W 123°26'1313.1
2014-Sep-01 00:33N 49°00' W 123°08'1313.4
2014-Aug-31 23:33N 49°05' W 123°27'1817.8
2014-Aug-31 22:33N 49°12' W 123°52'0 0.4
2014-Aug-31 21:34N 49°12' W 123°52'1818.2
2014-Aug-31 20:33N 49°06' W 123°26'1313.3
2014-Aug-31 19:33N 49°00' W 123°08'1111.3
2014-Aug-31 18:34N 49°03' W 123°24'1818.3
2014-Aug-31 17:34N 49°13' W 123°48'2 2.3
2014-Aug-31 16:33N 49°12' W 123°52'1817.4
2014-Aug-31 15:33N 49°06' W 123°27'1413.9
2014-Aug-31 14:33N 49°00' W 123°08'1212.3
2014-Aug-31 13:34N 49°04' W 123°26'1817.5
2014-Aug-31 12:33N 49°13' W 123°49'4 1.4
2014-Aug-31 09:25N 49°10' W 123°53'1 0.8
2014-Aug-31 07:33N 49°11' W 123°53'1717.2
2014-Aug-31 06:33N 49°07' W 123°28'1514.7
2014-Aug-31 05:33N 49°00' W 123°08'1211.6
2014-Aug-31 04:34N 49°03' W 123°25'1817.9
2014-Aug-31 03:33N 49°13' W 123°48'2 1.8
2014-Aug-31 02:33N 49°13' W 123°51'1817.6
2014-Aug-31 01:33N 49°06' W 123°26'1313.2
2014-Aug-31 00:33N 49°00' W 123°08'1212.5
2014-Aug-30 23:33N 49°04' W 123°26'1717.4
2014-Aug-30 22:33N 49°13' W 123°49'2 2.5
2014-Aug-30 21:33N 49°12' W 123°52'1818.1
2014-Aug-30 20:33N 49°06' W 123°27'1312.5
2014-Aug-30 19:29N 49°00' W 123°08'1213.4
2014-Aug-30 18:33N 49°04' W 123°26'1818.1
2014-Aug-30 17:33N 49°13' W 123°50'1 0.5
2014-Aug-30 16:33N 49°13' W 123°51'1817.9
2014-Aug-30 15:33N 49°06' W 123°26'1312.4
2014-Aug-30 14:31N 49°00' W 123°08'1313.3
2014-Aug-30 13:33N 49°04' W 123°26'1817.6
2014-Aug-30 12:33N 49°13' W 123°50'3 0.7
2014-Aug-30 07:34N 49°10' W 123°53'1716.4
2014-Aug-30 06:33N 49°07' W 123°28'1513.4
2014-Aug-30 05:25N 49°00' W 123°08'1214.4
2014-Aug-30 04:33N 49°04' W 123°26'1817.9
2014-Aug-30 03:33N 49°13' W 123°50'1 1.1
2014-Aug-30 02:33N 49°13' W 123°52'2120.9
2014-Aug-30 01:33N 49°05' W 123°22'1010.1
2014-Aug-30 00:32N 49°00' W 123°08'1414.9
2014-Aug-29 23:33N 49°06' W 123°29'1716.8
2014-Aug-29 22:33N 49°11' W 123°53'2 2.4
2014-Aug-29 21:32N 49°13' W 123°51'1818.3
2014-Aug-29 20:33N 49°06' W 123°26'1312.5
2014-Aug-29 19:32N 49°00' W 123°08'1111.1
2014-Aug-29 18:33N 49°03' W 123°24'1818.4
2014-Aug-29 17:33N 49°13' W 123°48'3 3.5
2014-Aug-29 16:33N 49°12' W 123°53'1817.6
2014-Aug-29 15:33N 49°06' W 123°27'1414.0
2014-Aug-29 14:33N 49°00' W 123°08'1211.8
2014-Aug-29 13:33N 49°04' W 123°25'1817.8
2014-Aug-29 12:33N 49°13' W 123°48'4 0.8
2014-Aug-29 07:33N 49°10' W 123°53'1717.2
2014-Aug-29 06:33N 49°07' W 123°28'1414.5
2014-Aug-29 05:33N 49°00' W 123°08'1312.7
2014-Aug-29 04:34N 49°04' W 123°26'1919.0
2014-Aug-29 03:33N 49°12' W 123°53'2 2.4
2014-Aug-29 02:33N 49°13' W 123°49'2020.2
2014-Aug-29 01:33N 49°05' W 123°21'10 9.8
2014-Aug-29 00:33N 49°00' W 123°08'1313.4
2014-Aug-28 23:34N 49°05' W 123°27'1818.5
2014-Aug-28 22:34N 49°12' W 123°53'1 1.1
2014-Aug-28 21:33N 49°13' W 123°52'2020.4
2014-Aug-28 20:33N 49°05' W 123°23'1110.8
2014-Aug-28 19:33N 49°00' W 123°08'1212.0
2014-Aug-28 18:34N 49°04' W 123°25'1919.3
2014-Aug-28 17:33N 49°12' W 123°52'0 0.3
2014-Aug-28 16:33N 49°12' W 123°53'1818.1
2014-Aug-28 15:33N 49°06' W 123°27'1413.6
2014-Aug-28 14:33N 49°00' W 123°08'1211.6
2014-Aug-28 13:33N 49°04' W 123°25'1818.4
2014-Aug-28 12:34N 49°13' W 123°49'3 0.6
2014-Aug-28 07:33N 49°11' W 123°53'1818.2
2014-Aug-28 06:34N 49°06' W 123°26'1413.5
2014-Aug-28 05:33N 49°00' W 123°08'1312.9
2014-Aug-28 04:33N 49°04' W 123°27'1918.8
2014-Aug-28 03:33N 49°12' W 123°53'1 0.9
2014-Aug-28 02:33N 49°12' W 123°53'2019.7
2014-Aug-28 01:33N 49°06' W 123°24'1212.0
2014-Aug-28 00:33N 49°00' W 123°08'1212.0
2014-Aug-27 23:33N 49°04' W 123°25'1919.0
2014-Aug-27 22:34N 49°13' W 123°51'2 1.6
2014-Aug-27 21:34N 49°12' W 123°53'1918.8
2014-Aug-27 20:33N 49°06' W 123°26'1312.5
2014-Aug-27 19:31N 49°00' W 123°08'1212.3
2014-Aug-27 18:34N 49°03' W 123°25'1918.9
2014-Aug-27 17:33N 49°13' W 123°50'2 2.2
2014-Aug-27 16:34N 49°12' W 123°53'1818.0
2014-Aug-27 15:33N 49°06' W 123°27'1413.2
2014-Aug-27 14:31N 49°00' W 123°08'1111.8
2014-Aug-27 13:34N 49°03' W 123°25'1818.4
2014-Aug-27 12:33N 49°13' W 123°49'3 0.7
2014-Aug-27 07:33N 49°11' W 123°53'1817.4
2014-Aug-27 06:33N 49°06' W 123°27'1414.2
2014-Aug-27 05:33N 49°00' W 123°08'1111.1
2014-Aug-27 04:33N 49°03' W 123°24'1919.2
2014-Aug-27 03:33N 49°13' W 123°50'2 1.8
2014-Aug-27 02:33N 49°13' W 123°52'2019.8
2014-Aug-27 01:33N 49°06' W 123°24'1211.7
2014-Aug-27 00:33N 49°00' W 123°08'1313.3
2014-Aug-26 23:33N 49°05' W 123°27'1818.5
2014-Aug-26 22:34N 49°12' W 123°53'2 1.9
2014-Aug-26 21:33N 49°13' W 123°51'2019.7
2014-Aug-26 20:33N 49°05' W 123°23'1110.4
2014-Aug-26 19:30N 49°00' W 123°08'1212.3
2014-Aug-26 18:33N 49°03' W 123°25'1918.9
2014-Aug-26 17:34N 49°13' W 123°50'3 2.6
2014-Aug-26 16:34N 49°12' W 123°53'1817.9
2014-Aug-26 15:34N 49°06' W 123°27'1413.7
2014-Aug-26 14:33N 49°00' W 123°08'1212.0
2014-Aug-26 13:33N 49°04' W 123°25'1818.5
2014-Aug-26 12:33N 49°13' W 123°49'3 0.5
2014-Aug-26 07:32N 49°12' W 123°53'1717.6
2014-Aug-26 06:33N 49°07' W 123°28'1514.6
2014-Aug-26 05:33N 49°00' W 123°08'1110.8
2014-Aug-26 04:33N 49°03' W 123°24'1919.3
2014-Aug-26 03:33N 49°13' W 123°49'2 1.6
2014-Aug-26 02:33N 49°13' W 123°52'1918.8
2014-Aug-26 01:33N 49°06' W 123°25'1212.4
2014-Aug-26 00:33N 49°00' W 123°08'1413.6
2014-Aug-25 23:33N 49°05' W 123°28'17 8.5
2014-Aug-25 21:33N 49°13' W 123°51'2019.7
2014-Aug-25 20:33N 49°05' W 123°23'1110.7
2014-Aug-25 19:31N 49°00' W 123°08'1212.5
2014-Aug-25 18:33N 49°04' W 123°25'1919.1
2014-Aug-25 17:33N 49°13' W 123°51'2 1.8
2014-Aug-25 16:33N 49°12' W 123°53'1717.5
2014-Aug-25 15:33N 49°07' W 123°27'1413.7
2014-Aug-25 14:31N 49°00' W 123°08'1111.8
2014-Aug-25 13:34N 49°03' W 123°24'1818.4
2014-Aug-25 12:33N 49°13' W 123°48'4 0.7
2014-Aug-25 07:33N 49°11' W 123°53'1717.5
2014-Aug-25 06:33N 49°07' W 123°28'1414.3
2014-Aug-25 05:33N 49°00' W 123°08'1212.4
2014-Aug-25 04:33N 49°04' W 123°26'1919.1
2014-Aug-25 03:33N 49°12' W 123°53'0 0.4
2014-Aug-25 02:34N 49°12' W 123°52'1919.2
2014-Aug-25 01:34N 49°06' W 123°25'1212.2
2014-Aug-25 00:34N 49°00' W 123°08'1212.3
2014-Aug-24 23:33N 49°04' W 123°26'1919.2
2014-Aug-24 22:33N 49°12' W 123°52'1 0.7
2014-Aug-24 21:34N 49°12' W 123°53'1918.9
2014-Aug-24 20:34N 49°06' W 123°26'1312.8
2014-Aug-24 19:33N 49°00' W 123°08'1111.2
2014-Aug-24 18:33N 49°03' W 123°24'1918.8
2014-Aug-24 17:33N 49°13' W 123°49'3 3.5
2014-Aug-24 16:34N 49°11' W 123°53'1717.4
2014-Aug-24 15:33N 49°07' W 123°27'1414.4
2014-Aug-24 14:33N 49°00' W 123°08'1111.4
2014-Aug-24 13:33N 49°03' W 123°25'1818.2
2014-Aug-24 12:33N 49°13' W 123°49'4 0.8
2014-Aug-24 07:33N 49°11' W 123°53'1717.4
2014-Aug-24 06:33N 49°06' W 123°28'  
Track history (hours):
 
Tides and Currents Weather Stations Pressure Air Temp Water Temp Dewpoint Dewpoint Depression Visibility Wind Speed Wind Dir Waves Ship Positions

Coastal Inspiration

Last reported at 2014-Sep-03 06:33 UTC. Time now 2014-Sep-03 07:25 UTC.
Position N 49°07' W 123°28'.

Length 160 m; draft 6 m.

Type: Ship. MMSI: 316011408.

Date/timePositionNaut miles runAvg speedWind from/ knotsBaromVisibWave heightAir tempDewpointWater temp
2014-Sep-03 06:33N 49°07' W 123°28'1514.9
2014-Sep-03 05:34N 49°00' W 123°08'1312.6
2014-Sep-03 04:33N 49°04' W 123°26'1918.7
2014-Sep-03 03:33N 49°12' W 123°52'2 1.6
2014-Sep-03 02:33N 49°11' W 123°53'1817.7
2014-Sep-03 01:33N 49°06' W 123°27'1413.9
2014-Sep-03 00:33N 49°00' W 123°08'1312.9
2014-Sep-02 23:33N 49°05' W 123°26'1817.6
2014-Sep-02 22:32N 49°13' W 123°51'2 1.7
2014-Sep-02 21:33N 49°12' W 123°53'1717.4
2014-Sep-02 20:33N 49°06' W 123°28'1414.3
2014-Sep-02 19:33N 49°00' W 123°08'1110.7
2014-Sep-02 18:33N 49°03' W 123°24'1918.8
2014-Sep-02 17:33N 49°13' W 123°48'4 4.4
2014-Sep-02 16:33N 49°10' W 123°53'1616.0
2014-Sep-02 15:33N 49°07' W 123°29'1515.5
2014-Sep-02 14:33N 49°00' W 123°08'1212.1
2014-Sep-02 13:33N 49°04' W 123°26'1817.5
2014-Sep-02 12:34N 49°13' W 123°48'4 0.8
2014-Sep-02 07:33N 49°10' W 123°53'1716.9
2014-Sep-02 06:33N 49°07' W 123°28'1514.7
2014-Sep-02 05:33N 49°00' W 123°08'1211.9
2014-Sep-02 04:33N 49°04' W 123°25'1817.8
2014-Sep-02 03:33N 49°13' W 123°49'3 3.0
2014-Sep-02 02:34N 49°12' W 123°53'1918.8
2014-Sep-02 01:34N 49°06' W 123°26'1312.9
2014-Sep-02 00:33N 49°00' W 123°08'1312.9
2014-Sep-01 23:34N 49°04' W 123°27'1817.9
2014-Sep-01 22:33N 49°13' W 123°51'1 1.1
2014-Sep-01 21:34N 49°12' W 123°53'1817.7
2014-Sep-01 20:33N 49°06' W 123°27'1413.8
2014-Sep-01 19:33N 49°00' W 123°08'1110.8
2014-Sep-01 18:34N 49°03' W 123°24'1918.3
2014-Sep-01 17:33N 49°13' W 123°48'4 4.2
2014-Sep-01 16:29N 49°10' W 123°53'1616.8
2014-Sep-01 15:33N 49°07' W 123°30'1616.0
2014-Sep-01 14:34N 49°00' W 123°08'1212.0
2014-Sep-01 13:34N 49°04' W 123°25'1817.5
2014-Sep-01 12:33N 49°13' W 123°48'4 0.7
2014-Sep-01 07:33N 49°11' W 123°53'1717.3
2014-Sep-01 06:34N 49°07' W 123°28'1414.5
2014-Sep-01 05:33N 49°00' W 123°08'1211.8
2014-Sep-01 04:33N 49°04' W 123°25'1817.9
2014-Sep-01 03:33N 49°13' W 123°49'2 2.1
2014-Sep-01 02:33N 49°13' W 123°52'1818.1
2014-Sep-01 01:33N 49°06' W 123°26'1313.1
2014-Sep-01 00:33N 49°00' W 123°08'1313.4
2014-Aug-31 23:33N 49°05' W 123°27'1817.8
2014-Aug-31 22:33N 49°12' W 123°52'0 0.4
2014-Aug-31 21:34N 49°12' W 123°52'1818.2
2014-Aug-31 20:33N 49°06' W 123°26'1313.3
2014-Aug-31 19:33N 49°00' W 123°08'1111.3
2014-Aug-31 18:34N 49°03' W 123°24'1818.3
2014-Aug-31 17:34N 49°13' W 123°48'2 2.3
2014-Aug-31 16:33N 49°12' W 123°52'1817.4
2014-Aug-31 15:33N 49°06' W 123°27'1413.9
2014-Aug-31 14:33N 49°00' W 123°08'1212.3
2014-Aug-31 13:34N 49°04' W 123°26'1817.5
2014-Aug-31 12:33N 49°13' W 123°49'4 1.4
2014-Aug-31 09:25N 49°10' W 123°53'1 0.8
2014-Aug-31 07:33N 49°11' W 123°53'1717.2
2014-Aug-31 06:33N 49°07' W 123°28'1514.7
2014-Aug-31 05:33N 49°00' W 123°08'1211.6
2014-Aug-31 04:34N 49°03' W 123°25'1817.9
2014-Aug-31 03:33N 49°13' W 123°48'2 1.8
2014-Aug-31 02:33N 49°13' W 123°51'1817.6
2014-Aug-31 01:33N 49°06' W 123°26'1313.2
2014-Aug-31 00:33N 49°00' W 123°08'1212.5
2014-Aug-30 23:33N 49°04' W 123°26'1717.4
2014-Aug-30 22:33N 49°13' W 123°49'2 2.5
2014-Aug-30 21:33N 49°12' W 123°52'1818.1
2014-Aug-30 20:33N 49°06' W 123°27'1312.5
2014-Aug-30 19:29N 49°00' W 123°08'1213.4
2014-Aug-30 18:33N 49°04' W 123°26'1818.1
2014-Aug-30 17:33N 49°13' W 123°50'1 0.5
2014-Aug-30 16:33N 49°13' W 123°51'1817.9
2014-Aug-30 15:33N 49°06' W 123°26'1312.4
2014-Aug-30 14:31N 49°00' W 123°08'1313.3
2014-Aug-30 13:33N 49°04' W 123°26'1817.6
2014-Aug-30 12:33N 49°13' W 123°50'3 0.7
2014-Aug-30 07:34N 49°10' W 123°53'1716.4
2014-Aug-30 06:33N 49°07' W 123°28'1513.4
2014-Aug-30 05:25N 49°00' W 123°08'1214.4
2014-Aug-30 04:33N 49°04' W 123°26'1817.9
2014-Aug-30 03:33N 49°13' W 123°50'1 1.1
2014-Aug-30 02:33N 49°13' W 123°52'2120.9
2014-Aug-30 01:33N 49°05' W 123°22'1010.1
2014-Aug-30 00:32N 49°00' W 123°08'1414.9
2014-Aug-29 23:33N 49°06' W 123°29'1716.8
2014-Aug-29 22:33N 49°11' W 123°53'2 2.4
2014-Aug-29 21:32N 49°13' W 123°51'1818.3
2014-Aug-29 20:33N 49°06' W 123°26'1312.5
2014-Aug-29 19:32N 49°00' W 123°08'1111.1
2014-Aug-29 18:33N 49°03' W 123°24'1818.4
2014-Aug-29 17:33N 49°13' W 123°48'3 3.5
2014-Aug-29 16:33N 49°12' W 123°53'1817.6
2014-Aug-29 15:33N 49°06' W 123°27'1414.0
2014-Aug-29 14:33N 49°00' W 123°08'1211.8
2014-Aug-29 13:33N 49°04' W 123°25'1817.8
2014-Aug-29 12:33N 49°13' W 123°48'4 0.8
2014-Aug-29 07:33N 49°10' W 123°53'1717.2
2014-Aug-29 06:33N 49°07' W 123°28'1414.5
2014-Aug-29 05:33N 49°00' W 123°08'1312.7
2014-Aug-29 04:34N 49°04' W 123°26'1919.0
2014-Aug-29 03:33N 49°12' W 123°53'2 2.4
2014-Aug-29 02:33N 49°13' W 123°49'2020.2
2014-Aug-29 01:33N 49°05' W 123°21'10 9.8
2014-Aug-29 00:33N 49°00' W 123°08'1313.4
2014-Aug-28 23:34N 49°05' W 123°27'1818.5
2014-Aug-28 22:34N 49°12' W 123°53'1 1.1
2014-Aug-28 21:33N 49°13' W 123°52'2020.4
2014-Aug-28 20:33N 49°05' W 123°23'1110.8
2014-Aug-28 19:33N 49°00' W 123°08'1212.0
2014-Aug-28 18:34N 49°04' W 123°25'1919.3
2014-Aug-28 17:33N 49°12' W 123°52'0 0.3
2014-Aug-28 16:33N 49°12' W 123°53'1818.1
2014-Aug-28 15:33N 49°06' W 123°27'1413.6
2014-Aug-28 14:33N 49°00' W 123°08'1211.6
2014-Aug-28 13:33N 49°04' W 123°25'1818.4
2014-Aug-28 12:34N 49°13' W 123°49'3 0.6
2014-Aug-28 07:33N 49°11' W 123°53'1818.2
2014-Aug-28 06:34N 49°06' W 123°26'1413.5
2014-Aug-28 05:33N 49°00' W 123°08'1312.9
2014-Aug-28 04:33N 49°04' W 123°27'1918.8
2014-Aug-28 03:33N 49°12' W 123°53'1 0.9
2014-Aug-28 02:33N 49°12' W 123°53'2019.7
2014-Aug-28 01:33N 49°06' W 123°24'1212.0
2014-Aug-28 00:33N 49°00' W 123°08'1212.0
2014-Aug-27 23:33N 49°04' W 123°25'1919.0
2014-Aug-27 22:34N 49°13' W 123°51'2 1.6
2014-Aug-27 21:34N 49°12' W 123°53'1918.8
2014-Aug-27 20:33N 49°06' W 123°26'1312.5
2014-Aug-27 19:31N 49°00' W 123°08'1212.3
2014-Aug-27 18:34N 49°03' W 123°25'1918.9
2014-Aug-27 17:33N 49°13' W 123°50'2 2.2
2014-Aug-27 16:34N 49°12' W 123°53'1818.0
2014-Aug-27 15:33N 49°06' W 123°27'1413.2
2014-Aug-27 14:31N 49°00' W 123°08'1111.8
2014-Aug-27 13:34N 49°03' W 123°25'1818.4
2014-Aug-27 12:33N 49°13' W 123°49'3 0.7
2014-Aug-27 07:33N 49°11' W 123°53'1817.4
2014-Aug-27 06:33N 49°06' W 123°27'1414.2
2014-Aug-27 05:33N 49°00' W 123°08'1111.1
2014-Aug-27 04:33N 49°03' W 123°24'1919.2
2014-Aug-27 03:33N 49°13' W 123°50'2 1.8
2014-Aug-27 02:33N 49°13' W 123°52'2019.8
2014-Aug-27 01:33N 49°06' W 123°24'1211.7
2014-Aug-27 00:33N 49°00' W 123°08'1313.3
2014-Aug-26 23:33N 49°05' W 123°27'1818.5
2014-Aug-26 22:34N 49°12' W 123°53'2 1.9
2014-Aug-26 21:33N 49°13' W 123°51'2019.7
2014-Aug-26 20:33N 49°05' W 123°23'1110.4
2014-Aug-26 19:30N 49°00' W 123°08'1212.3
2014-Aug-26 18:33N 49°03' W 123°25'1918.9
2014-Aug-26 17:34N 49°13' W 123°50'3 2.6
2014-Aug-26 16:34N 49°12' W 123°53'1817.9
2014-Aug-26 15:34N 49°06' W 123°27'1413.7
2014-Aug-26 14:33N 49°00' W 123°08'1212.0
2014-Aug-26 13:33N 49°04' W 123°25'1818.5
2014-Aug-26 12:33N 49°13' W 123°49'3 0.5
2014-Aug-26 07:32N 49°12' W 123°53'1717.6
2014-Aug-26 06:33N 49°07' W 123°28'1514.6
2014-Aug-26 05:33N 49°00' W 123°08'1110.8
2014-Aug-26 04:33N 49°03' W 123°24'1919.3
2014-Aug-26 03:33N 49°13' W 123°49'2 1.6
2014-Aug-26 02:33N 49°13' W 123°52'1918.8
2014-Aug-26 01:33N 49°06' W 123°25'1212.4
2014-Aug-26 00:33N 49°00' W 123°08'1413.6
2014-Aug-25 23:33N 49°05' W 123°28'17 8.5
2014-Aug-25 21:33N 49°13' W 123°51'2019.7
2014-Aug-25 20:33N 49°05' W 123°23'1110.7
2014-Aug-25 19:31N 49°00' W 123°08'1212.5
2014-Aug-25 18:33N 49°04' W 123°25'1919.1
2014-Aug-25 17:33N 49°13' W 123°51'2 1.8
2014-Aug-25 16:33N 49°12' W 123°53'1717.5
2014-Aug-25 15:33N 49°07' W 123°27'1413.7
2014-Aug-25 14:31N 49°00' W 123°08'1111.8
2014-Aug-25 13:34N 49°03' W 123°24'1818.4
2014-Aug-25 12:33N 49°13' W 123°48'4 0.7
2014-Aug-25 07:33N 49°11' W 123°53'1717.5
2014-Aug-25 06:33N 49°07' W 123°28'1414.3
2014-Aug-25 05:33N 49°00' W 123°08'1212.4
2014-Aug-25 04:33N 49°04' W 123°26'1919.1
2014-Aug-25 03:33N 49°12' W 123°53'0 0.4
2014-Aug-25 02:34N 49°12' W 123°52'1919.2
2014-Aug-25 01:34N 49°06' W 123°25'1212.2
2014-Aug-25 00:34N 49°00' W 123°08'1212.3
2014-Aug-24 23:33N 49°04' W 123°26'1919.2
2014-Aug-24 22:33N 49°12' W 123°52'1 0.7
2014-Aug-24 21:34N 49°12' W 123°53'1918.9
2014-Aug-24 20:34N 49°06' W 123°26'1312.8
2014-Aug-24 19:33N 49°00' W 123°08'1111.2
2014-Aug-24 18:33N 49°03' W 123°24'1918.8
2014-Aug-24 17:33N 49°13' W 123°49'3 3.5
2014-Aug-24 16:34N 49°11' W 123°53'1717.4
2014-Aug-24 15:33N 49°07' W 123°27'1414.4
2014-Aug-24 14:33N 49°00' W 123°08'1111.4
2014-Aug-24 13:33N 49°03' W 123°25'1818.2
2014-Aug-24 12:33N 49°13' W 123°49'4 0.8
2014-Aug-24 07:33N 49°11' W 123°53'1717.4
2014-Aug-24 06:33N 49°06' W 123°28'  

Dump ship's entire track history